Saint Petersburg, Florida
Current Conditions -  °F | °C
As of 3:53 PM on Monday 22 Dec 2014 (Local Time) from KSPG Reporting Station
Clear Clear  
Wind Chill: 73°   Ceiling: Unl
Heat Index: 73°   Visibility: 10mi
Dew Point: 68°   Wind: 12mph
Humidity: 84%   Direction: 210°SSW
Pressure: 29.9"   Gusts: NA
Location:  27.77°N, 82.63°W
Report Text: KSPG 222053Z 21010KT 10SM CLR 23/20 A2990 RMK AO2 SLP123 T02280200 55013
Loading
Personal Weather Stations






























Interactive Weather Map New forecast layout! Learn more

10-Day Weather Forecast

Advertisements
Track Severe Weather on mobile